createdAt,value
2023-01-31T00:03:42.112Z,98418.75
2023-01-31T00:08:47.327Z,98426.06
2023-01-31T00:13:51.644Z,98440.08
2023-01-31T00:18:55.159Z,98444.88
2023-01-31T00:23:59.495Z,98455.20
2023-01-31T00:29:04.246Z,98463.67
2023-01-31T00:34:08.999Z,98470.95
2023-01-31T00:39:12.502Z,98481.67
2023-01-31T00:44:16.118Z,98488.52
2023-01-31T00:49:19.531Z,98499.69
2023-01-31T00:54:23.147Z,98513.18
2023-01-31T00:59:27.806Z,98513.70
2023-01-31T01:04:31.511Z,98521.08
2023-01-31T01:09:35.580Z,98523.65
2023-01-31T01:14:39.154Z,98523.52
2023-01-31T01:19:42.877Z,98525.05
2023-01-31T01:24:47.107Z,98545.89
2023-01-31T01:29:50.524Z,98554.59
2023-01-31T01:34:54.140Z,98567.29
2023-01-31T01:39:57.550Z,98571.24
2023-01-31T01:45:03.530Z,98577.81
2023-01-31T01:50:20.145Z,98581.17
2023-01-31T01:55:42.238Z,98588.30
2023-01-31T02:00:47.623Z,98591.77
2023-01-31T02:05:58.243Z,98602.00
2023-01-31T02:11:05.442Z,98605.76
2023-01-31T02:16:09.618Z,98616.70
2023-01-31T02:21:12.986Z,98621.85
2023-01-31T02:26:52.142Z,98624.11
2023-01-31T02:32:14.390Z,98630.47
2023-01-31T02:37:36.835Z,98641.23
2023-01-31T02:43:19.496Z,98658.55
2023-01-31T02:48:38.156Z,98667.80
2023-01-31T02:53:53.650Z,98673.52
2023-01-31T02:59:12.218Z,98688.36
2023-01-31T03:04:16.248Z,98688.45
2023-01-31T03:09:30.314Z,98700.85
2023-01-31T03:14:48.979Z,98707.70
2023-01-31T03:20:10.207Z,98715.16
2023-01-31T03:25:17.292Z,98721.87
2023-01-31T03:30:31.680Z,98731.34
2023-01-31T03:35:39.394Z,98737.63
2023-01-31T03:40:50.079Z,98747.94
2023-01-31T03:45:57.599Z,98750.86
2023-01-31T03:51:05.507Z,98759.39
2023-01-31T03:56:14.604Z,98770.52
2023-01-31T04:01:20.316Z,98776.77
2023-01-31T04:06:23.835Z,98781.80
2023-01-31T04:11:28.271Z,98787.98
2023-01-31T04:16:32.033Z,98788.33
2023-01-31T04:21:35.820Z,98796.69
2023-01-31T04:26:39.409Z,98812.48
2023-01-31T04:31:43.184Z,98821.40
2023-01-31T04:36:46.775Z,98820.84
2023-01-31T04:41:50.293Z,98824.45
2023-01-31T04:46:53.810Z,98831.89
2023-01-31T04:51:57.317Z,98838.16
2023-01-31T04:57:01.042Z,98840.93
2023-01-31T05:02:04.679Z,98847.13
2023-01-31T05:07:08.279Z,98856.73
2023-01-31T05:12:11.907Z,98864.89
2023-01-31T05:17:15.516Z,98877.30
2023-01-31T05:22:22.814Z,98884.00
2023-01-31T05:27:27.159Z,98897.74
2023-01-31T05:32:31.344Z,98908.52
2023-01-31T05:37:35.099Z,98918.30
2023-01-31T05:42:38.820Z,98923.96
2023-01-31T05:47:42.441Z,98925.26
2023-01-31T05:52:59.943Z,98938.59
2023-01-31T05:58:03.704Z,98950.33
2023-01-31T06:03:07.154Z,98952.92
2023-01-31T06:08:11.355Z,98960.73
2023-01-31T06:13:14.877Z,98966.00
2023-01-31T06:18:18.480Z,98982.14
2023-01-31T06:23:22.514Z,98994.52
2023-01-31T06:28:26.126Z,99004.00
2023-01-31T06:33:42.737Z,99008.27
2023-01-31T06:38:51.417Z,99011.27
2023-01-31T06:43:55.300Z,99015.09
2023-01-31T06:48:58.724Z,99026.02
2023-01-31T06:54:02.547Z,99035.34
2023-01-31T06:59:05.963Z,99042.04
2023-01-31T07:04:09.483Z,99054.48
2023-01-31T07:09:12.988Z,99066.37
2023-01-31T07:14:16.609Z,99081.47
2023-01-31T07:19:20.534Z,99091.19
2023-01-31T07:24:24.060Z,99096.95
2023-01-31T07:29:27.565Z,99096.17
2023-01-31T07:34:31.386Z,99106.34
2023-01-31T07:39:34.802Z,99108.27
2023-01-31T07:44:38.317Z,99118.08
2023-01-31T07:49:41.833Z,99120.16
2023-01-31T07:54:45.353Z,99123.52
2023-01-31T07:59:49.071Z,99123.98
2023-01-31T08:04:52.714Z,99129.35
2023-01-31T08:09:56.718Z,99125.11
2023-01-31T08:15:00.330Z,99127.23
2023-01-31T08:20:04.467Z,99132.90
2023-01-31T08:25:08.292Z,99140.95
2023-01-31T08:30:12.620Z,99148.76
2023-01-31T08:35:16.131Z,99157.17
2023-01-31T08:40:19.852Z,99156.16
2023-01-31T08:45:24.497Z,99163.65
2023-01-31T08:50:30.369Z,99169.02
2023-01-31T08:55:36.543Z,99180.09
2023-01-31T09:00:40.519Z,99178.67
2023-01-31T09:05:44.243Z,99180.63
2023-01-31T09:10:53.103Z,99184.06
2023-01-31T09:16:11.507Z,99197.45
2023-01-31T09:21:18.832Z,99198.80
2023-01-31T09:26:22.442Z,99196.52
2023-01-31T09:31:26.300Z,99198.02
2023-01-31T09:36:30.291Z,99205.92
2023-01-31T09:41:48.437Z,99202.13
2023-01-31T09:46:59.862Z,99191.68
2023-01-31T09:52:04.676Z,99199.00
2023-01-31T09:57:29.997Z,99206.02
2023-01-31T10:02:42.834Z,99200.34
2023-01-31T10:07:49.318Z,99202.56
2023-01-31T10:12:58.131Z,99208.55
2023-01-31T10:18:31.437Z,99206.20
2023-01-31T10:23:44.040Z,99219.05
2023-01-31T10:29:00.674Z,99220.70
2023-01-31T10:34:25.544Z,99235.50
2023-01-31T10:39:34.172Z,99227.11
2023-01-31T10:45:12.514Z,99229.70
2023-01-31T10:50:24.623Z,99234.84
2023-01-31T10:55:34.387Z,99216.31
2023-01-31T11:00:37.804Z,99209.42
2023-01-31T11:05:58.521Z,99216.10
2023-01-31T11:11:09.669Z,99209.09
2023-01-31T11:16:13.593Z,99212.14
2023-01-31T11:21:26.492Z,99207.61
2023-01-31T11:26:36.951Z,99200.52
2023-01-31T11:31:43.610Z,99208.00
2023-01-31T11:36:47.484Z,99208.84
2023-01-31T11:41:51.084Z,99204.63
2023-01-31T11:46:58.162Z,99198.19
2023-01-31T11:52:15.830Z,99185.53
2023-01-31T11:57:32.768Z,99181.72
2023-01-31T12:02:38.311Z,99170.61
2023-01-31T12:07:50.427Z,99172.61
2023-01-31T12:12:57.564Z,99161.27
2023-01-31T12:18:12.025Z,99159.02
2023-01-31T12:23:27.314Z,99158.90
2023-01-31T12:28:52.749Z,99165.55
2023-01-31T12:34:28.310Z,99159.47
2023-01-31T12:40:23.837Z,99147.90
2023-01-31T12:45:46.526Z,99137.36
2023-01-31T12:51:30.565Z,99142.19
2023-01-31T12:57:04.231Z,99135.98
2023-01-31T13:02:19.605Z,99132.84
2023-01-31T13:07:31.963Z,99126.96
2023-01-31T13:12:37.504Z,99128.33
2023-01-31T13:17:42.443Z,99132.47
2023-01-31T13:22:55.767Z,99128.45
2023-01-31T13:28:20.988Z,99129.17
2023-01-31T13:33:25.147Z,99122.25
2023-01-31T13:38:36.414Z,99114.45
2023-01-31T13:43:39.941Z,99103.33
2023-01-31T13:48:59.433Z,99094.57
2023-01-31T13:54:25.701Z,99092.98
2023-01-31T13:59:36.154Z,99093.10
2023-01-31T14:04:40.581Z,99088.39
2023-01-31T14:10:05.813Z,99078.93
2023-01-31T14:15:47.381Z,99074.66
2023-01-31T14:20:51.033Z,99076.92
2023-01-31T14:25:54.760Z,99086.64
2023-01-31T14:30:58.169Z,99089.30
2023-01-31T14:36:40.715Z,99089.98
2023-01-31T14:42:07.257Z,99085.66
2023-01-31T14:47:25.881Z,99079.04
2023-01-31T14:52:50.214Z,99068.25
2023-01-31T14:58:03.260Z,99065.02
2023-01-31T15:03:55.622Z,99060.76
2023-01-31T15:09:25.860Z,99062.58
2023-01-31T15:14:45.607Z,99056.77
2023-01-31T15:19:56.791Z,99052.89
2023-01-31T15:25:06.624Z,99054.60
2023-01-31T15:30:17.313Z,99055.92
2023-01-31T15:35:29.652Z,99053.88
2023-01-31T15:40:33.761Z,99054.14
2023-01-31T15:45:37.750Z,99054.09
2023-01-31T15:50:52.366Z,99046.09
2023-01-31T15:55:58.355Z,99046.29
2023-01-31T16:01:03.719Z,99041.05
2023-01-31T16:06:21.647Z,99041.65
2023-01-31T16:11:26.597Z,99036.86
2023-01-31T16:16:31.677Z,99032.09
2023-01-31T16:21:44.931Z,99023.28
2023-01-31T16:26:57.527Z,99013.71
2023-01-31T16:32:01.244Z,99004.56
2023-01-31T16:37:07.192Z,98992.85
2023-01-31T16:42:16.364Z,98980.69
2023-01-31T16:47:51.111Z,98965.78
2023-01-31T16:53:16.440Z,98956.92
2023-01-31T16:58:49.445Z,98949.17
2023-01-31T17:04:22.580Z,98946.55
2023-01-31T17:09:26.375Z,98939.28
2023-01-31T17:14:30.288Z,98928.01
2023-01-31T17:19:33.924Z,98918.82
2023-01-31T17:24:37.440Z,98911.89
2023-01-31T17:29:40.851Z,98896.05
2023-01-31T17:34:46.217Z,98872.58
2023-01-31T17:39:49.723Z,98866.34
2023-01-31T17:44:53.133Z,98863.55
2023-01-31T17:49:57.566Z,98854.48
2023-01-31T17:55:01.101Z,98845.70
2023-01-31T18:00:08.233Z,98834.33
2023-01-31T18:05:13.894Z,98826.35
2023-01-31T18:10:18.191Z,98806.61
2023-01-31T18:15:22.185Z,98796.25
2023-01-31T18:20:25.731Z,98776.99
2023-01-31T18:25:31.329Z,98753.98
2023-01-31T18:30:34.750Z,98739.30
2023-01-31T18:35:38.266Z,98722.60
2023-01-31T18:40:41.946Z,98713.30
2023-01-31T18:45:45.550Z,98699.34
2023-01-31T18:50:48.909Z,98685.97
2023-01-31T18:56:00.000Z,98667.10
2023-01-31T19:01:07.568Z,98658.61
2023-01-31T19:06:14.982Z,98644.73
2023-01-31T19:11:20.455Z,98639.55
2023-01-31T19:16:29.079Z,98632.64
2023-01-31T19:21:34.685Z,98618.09
2023-01-31T19:26:38.284Z,98602.38
2023-01-31T19:31:42.122Z,98579.58
2023-01-31T19:36:46.887Z,98567.27
2023-01-31T19:41:50.345Z,98550.05
2023-01-31T19:46:54.164Z,98529.39
2023-01-31T19:51:57.693Z,98516.50
2023-01-31T19:57:01.205Z,98503.69
2023-01-31T20:02:04.736Z,98490.67
2023-01-31T20:07:08.432Z,98481.98
2023-01-31T20:12:12.670Z,98469.02
2023-01-31T20:17:16.082Z,98457.80
2023-01-31T20:22:22.260Z,98448.53
2023-01-31T20:27:26.084Z,98437.48
2023-01-31T20:32:29.702Z,98432.02
2023-01-31T20:37:33.833Z,98435.52
2023-01-31T20:42:37.455Z,98423.77
2023-01-31T20:47:41.072Z,98410.61
2023-01-31T20:52:44.586Z,98403.00
2023-01-31T20:57:51.474Z,98398.84
2023-01-31T21:02:54.987Z,98386.75
2023-01-31T21:07:58.505Z,98391.98
2023-01-31T21:13:02.134Z,98383.89
2023-01-31T21:18:05.719Z,98370.08
2023-01-31T21:23:09.876Z,98361.08
2023-01-31T21:28:13.592Z,98349.42
2023-01-31T21:33:18.222Z,98345.55
2023-01-31T21:38:21.651Z,98343.54
2023-01-31T21:43:25.169Z,98333.90
2023-01-31T21:48:32.362Z,98339.86
2023-01-31T21:53:36.705Z,98337.30
2023-01-31T21:58:40.317Z,98331.08
2023-01-31T22:03:45.578Z,98323.00
2023-01-31T22:08:57.899Z,98318.19
2023-01-31T22:14:03.798Z,98306.23
2023-01-31T22:19:08.153Z,98297.65
2023-01-31T22:24:12.033Z,98293.52
2023-01-31T22:29:16.262Z,98289.72
2023-01-31T22:34:19.679Z,98293.77
2023-01-31T22:39:23.193Z,98298.63
2023-01-31T22:44:28.247Z,98293.59
2023-01-31T22:49:31.653Z,98299.15
2023-01-31T22:54:35.268Z,98308.54
2023-01-31T22:59:38.886Z,98306.93
2023-01-31T23:04:42.403Z,98308.36
2023-01-31T23:09:46.024Z,98302.38
2023-01-31T23:14:49.639Z,98301.20
2023-01-31T23:19:53.164Z,98305.05
2023-01-31T23:24:56.800Z,98303.87
2023-01-31T23:30:00.392Z,98305.81
2023-01-31T23:35:05.383Z,98313.44
2023-01-31T23:40:10.212Z,98313.02
2023-01-31T23:45:13.707Z,98316.74
2023-01-31T23:50:17.834Z,98314.69
2023-01-31T23:55:23.007Z,98308.13
